sensor_id;sensor_type;location;lat;lon;timestamp;P1;durP1;ratioP1;P2;durP2;ratioP2
25123;SDS011;13104;51.030;4.686;2023-05-18T00:02:14;12.23;;;4.07;;
25123;SDS011;13104;51.030;4.686;2023-05-18T00:04:41;14.98;;;3.75;;
25123;SDS011;13104;51.030;4.686;2023-05-18T00:07:07;18.88;;;4.22;;
25123;SDS011;13104;51.030;4.686;2023-05-18T00:09:34;15.40;;;4.25;;
25123;SDS011;13104;51.030;4.686;2023-05-18T00:12:01;18.98;;;4.13;;
25123;SDS011;13104;51.030;4.686;2023-05-18T00:14:28;11.98;;;4.68;;
25123;SDS011;13104;51.030;4.686;2023-05-18T00:16:54;14.00;;;4.68;;
25123;SDS011;13104;51.030;4.686;2023-05-18T00:19:20;12.30;;;4.13;;
25123;SDS011;13104;51.030;4.686;2023-05-18T00:21:48;13.57;;;3.90;;
25123;SDS011;13104;51.030;4.686;2023-05-18T00:24:14;15.57;;;4.00;;
25123;SDS011;13104;51.030;4.686;2023-05-18T00:26:41;16.17;;;4.97;;
25123;SDS011;13104;51.030;4.686;2023-05-18T00:29:08;13.13;;;4.53;;
25123;SDS011;13104;51.030;4.686;2023-05-18T00:31:34;13.40;;;4.63;;
25123;SDS011;13104;51.030;4.686;2023-05-18T00:34:02;16.27;;;4.13;;
25123;SDS011;13104;51.030;4.686;2023-05-18T00:36:29;12.32;;;4.63;;
25123;SDS011;13104;51.030;4.686;2023-05-18T00:38:55;15.40;;;4.93;;
25123;SDS011;13104;51.030;4.686;2023-05-18T00:41:22;13.32;;;4.40;;
25123;SDS011;13104;51.030;4.686;2023-05-18T00:43:49;10.93;;;4.22;;
25123;SDS011;13104;51.030;4.686;2023-05-18T00:46:15;10.05;;;4.53;;
25123;SDS011;13104;51.030;4.686;2023-05-18T00:48:41;13.65;;;4.32;;
25123;SDS011;13104;51.030;4.686;2023-05-18T00:51:07;12.73;;;4.60;;
25123;SDS011;13104;51.030;4.686;2023-05-18T00:53:34;12.95;;;4.32;;
25123;SDS011;13104;51.030;4.686;2023-05-18T00:56:01;11.65;;;4.32;;
25123;SDS011;13104;51.030;4.686;2023-05-18T00:58:27;13.32;;;4.10;;
25123;SDS011;13104;51.030;4.686;2023-05-18T01:00:54;18.23;;;4.97;;
25123;SDS011;13104;51.030;4.686;2023-05-18T01:03:20;15.48;;;4.65;;
25123;SDS011;13104;51.030;4.686;2023-05-18T01:05:47;12.00;;;4.35;;
25123;SDS011;13104;51.030;4.686;2023-05-18T01:08:14;12.68;;;4.65;;
25123;SDS011;13104;51.030;4.686;2023-05-18T01:10:41;12.30;;;4.20;;
25123;SDS011;13104;51.030;4.686;2023-05-18T01:13:19;12.32;;;5.07;;
25123;SDS011;13104;51.030;4.686;2023-05-18T01:15:48;13.80;;;4.40;;
25123;SDS011;13104;51.030;4.686;2023-05-18T01:19:04;11.95;;;4.38;;
25123;SDS011;13104;51.030;4.686;2023-05-18T01:21:17;13.18;;;4.88;;
25123;SDS011;13104;51.030;4.686;2023-05-18T01:26:28;16.58;;;4.53;;
25123;SDS011;13104;51.030;4.686;2023-05-18T01:28:57;16.40;;;4.45;;
25123;SDS011;13104;51.030;4.686;2023-05-18T01:31:24;18.40;;;4.93;;
25123;SDS011;13104;51.030;4.686;2023-05-18T01:33:50;16.40;;;4.75;;
25123;SDS011;13104;51.030;4.686;2023-05-18T01:36:16;9.85;;;4.00;;
25123;SDS011;13104;51.030;4.686;2023-05-18T01:38:42;10.25;;;3.90;;
25123;SDS011;13104;51.030;4.686;2023-05-18T01:43:36;14.68;;;4.75;;
25123;SDS011;13104;51.030;4.686;2023-05-18T01:46:07;11.88;;;4.47;;
25123;SDS011;13104;51.030;4.686;2023-05-18T01:48:34;14.20;;;5.00;;
25123;SDS011;13104;51.030;4.686;2023-05-18T01:51:02;14.38;;;4.90;;
25123;SDS011;13104;51.030;4.686;2023-05-18T01:53:32;11.00;;;4.68;;
25123;SDS011;13104;51.030;4.686;2023-05-18T01:56:02;13.52;;;4.38;;
25123;SDS011;13104;51.030;4.686;2023-05-18T01:58:29;13.07;;;4.95;;
25123;SDS011;13104;51.030;4.686;2023-05-18T02:00:56;17.23;;;4.70;;
25123;SDS011;13104;51.030;4.686;2023-05-18T02:03:22;11.48;;;4.60;;
25123;SDS011;13104;51.030;4.686;2023-05-18T02:05:48;16.02;;;5.30;;
25123;SDS011;13104;51.030;4.686;2023-05-18T02:08:14;11.52;;;4.65;;
25123;SDS011;13104;51.030;4.686;2023-05-18T02:10:41;9.70;;;4.43;;
25123;SDS011;13104;51.030;4.686;2023-05-18T02:13:07;12.05;;;4.38;;
25123;SDS011;13104;51.030;4.686;2023-05-18T02:15:33;9.95;;;4.32;;
25123;SDS011;13104;51.030;4.686;2023-05-18T02:17:59;10.27;;;4.65;;
25123;SDS011;13104;51.030;4.686;2023-05-18T02:20:27;13.10;;;4.28;;
25123;SDS011;13104;51.030;4.686;2023-05-18T02:22:56;13.25;;;4.93;;
25123;SDS011;13104;51.030;4.686;2023-05-18T02:25:23;12.65;;;4.65;;
25123;SDS011;13104;51.030;4.686;2023-05-18T02:27:49;15.45;;;5.35;;
25123;SDS011;13104;51.030;4.686;2023-05-18T02:30:15;8.30;;;4.20;;
25123;SDS011;13104;51.030;4.686;2023-05-18T02:32:41;11.50;;;4.82;;
25123;SDS011;13104;51.030;4.686;2023-05-18T02:35:11;14.73;;;4.93;;
25123;SDS011;13104;51.030;4.686;2023-05-18T02:37:37;9.63;;;4.65;;
25123;SDS011;13104;51.030;4.686;2023-05-18T02:40:12;12.95;;;4.60;;
25123;SDS011;13104;51.030;4.686;2023-05-18T02:42:40;15.88;;;5.03;;
25123;SDS011;13104;51.030;4.686;2023-05-18T02:45:06;16.08;;;4.75;;
25123;SDS011;13104;51.030;4.686;2023-05-18T02:47:33;17.48;;;5.03;;
25123;SDS011;13104;51.030;4.686;2023-05-18T02:49:59;12.70;;;4.85;;
25123;SDS011;13104;51.030;4.686;2023-05-18T02:52:25;16.58;;;4.68;;
25123;SDS011;13104;51.030;4.686;2023-05-18T02:54:52;12.25;;;4.80;;
25123;SDS011;13104;51.030;4.686;2023-05-18T02:57:20;10.85;;;5.15;;
25123;SDS011;13104;51.030;4.686;2023-05-18T02:59:46;14.23;;;4.57;;
25123;SDS011;13104;51.030;4.686;2023-05-18T03:02:12;9.90;;;4.47;;
25123;SDS011;13104;51.030;4.686;2023-05-18T03:04:40;14.63;;;4.57;;
25123;SDS011;13104;51.030;4.686;2023-05-18T03:07:06;14.60;;;4.90;;
25123;SDS011;13104;51.030;4.686;2023-05-18T03:09:34;9.77;;;5.00;;
25123;SDS011;13104;51.030;4.686;2023-05-18T03:12:00;13.65;;;4.93;;
25123;SDS011;13104;51.030;4.686;2023-05-18T03:14:26;14.95;;;5.55;;
25123;SDS011;13104;51.030;4.686;2023-05-18T03:16:53;14.75;;;5.30;;
25123;SDS011;13104;51.030;4.686;2023-05-18T03:19:21;18.23;;;5.72;;
25123;SDS011;13104;51.030;4.686;2023-05-18T03:21:47;12.35;;;5.15;;
25123;SDS011;13104;51.030;4.686;2023-05-18T03:24:14;13.73;;;5.65;;
25123;SDS011;13104;51.030;4.686;2023-05-18T03:26:40;13.80;;;5.32;;
25123;SDS011;13104;51.030;4.686;2023-05-18T03:29:08;12.85;;;4.85;;
25123;SDS011;13104;51.030;4.686;2023-05-18T03:31:35;15.82;;;5.45;;
25123;SDS011;13104;51.030;4.686;2023-05-18T03:34:01;12.00;;;5.07;;
25123;SDS011;13104;51.030;4.686;2023-05-18T03:36:27;14.30;;;5.25;;
25123;SDS011;13104;51.030;4.686;2023-05-18T03:38:53;16.45;;;5.68;;
25123;SDS011;13104;51.030;4.686;2023-05-18T03:41:20;14.73;;;5.05;;
25123;SDS011;13104;51.030;4.686;2023-05-18T03:43:46;14.52;;;5.57;;
25123;SDS011;13104;51.030;4.686;2023-05-18T03:46:12;17.98;;;5.40;;
25123;SDS011;13104;51.030;4.686;2023-05-18T03:48:38;16.35;;;5.10;;
25123;SDS011;13104;51.030;4.686;2023-05-18T03:51:04;16.45;;;5.57;;
25123;SDS011;13104;51.030;4.686;2023-05-18T03:53:30;12.73;;;5.57;;
25123;SDS011;13104;51.030;4.686;2023-05-18T03:55:57;12.30;;;5.35;;
25123;SDS011;13104;51.030;4.686;2023-05-18T03:58:23;14.68;;;5.25;;
25123;SDS011;13104;51.030;4.686;2023-05-18T04:00:51;12.18;;;5.20;;
25123;SDS011;13104;51.030;4.686;2023-05-18T04:03:17;13.38;;;5.68;;
25123;SDS011;13104;51.030;4.686;2023-05-18T04:05:45;11.82;;;4.55;;
25123;SDS011;13104;51.030;4.686;2023-05-18T04:08:11;12.27;;;5.57;;
25123;SDS011;13104;51.030;4.686;2023-05-18T04:10:40;12.18;;;5.15;;
25123;SDS011;13104;51.030;4.686;2023-05-18T04:13:07;19.70;;;5.80;;
25123;SDS011;13104;51.030;4.686;2023-05-18T04:15:33;15.38;;;5.57;;
25123;SDS011;13104;51.030;4.686;2023-05-18T04:17:59;17.58;;;5.10;;
25123;SDS011;13104;51.030;4.686;2023-05-18T04:20:26;13.10;;;4.75;;
25123;SDS011;13104;51.030;4.686;2023-05-18T04:22:54;19.20;;;5.40;;
25123;SDS011;13104;51.030;4.686;2023-05-18T04:25:21;11.32;;;5.30;;
25123;SDS011;13104;51.030;4.686;2023-05-18T04:27:52;15.38;;;5.07;;
25123;SDS011;13104;51.030;4.686;2023-05-18T04:30:18;10.73;;;5.05;;
25123;SDS011;13104;51.030;4.686;2023-05-18T04:32:47;10.43;;;5.13;;
25123;SDS011;13104;51.030;4.686;2023-05-18T04:35:14;18.73;;;6.13;;
25123;SDS011;13104;51.030;4.686;2023-05-18T04:37:40;11.95;;;5.40;;
25123;SDS011;13104;51.030;4.686;2023-05-18T04:40:10;14.32;;;5.35;;
25123;SDS011;13104;51.030;4.686;2023-05-18T04:42:41;13.55;;;5.53;;
25123;SDS011;13104;51.030;4.686;2023-05-18T04:45:12;10.38;;;5.22;;
25123;SDS011;13104;51.030;4.686;2023-05-18T04:47:40;11.93;;;5.60;;
25123;SDS011;13104;51.030;4.686;2023-05-18T04:50:06;10.43;;;4.93;;
25123;SDS011;13104;51.030;4.686;2023-05-18T04:52:32;13.10;;;5.30;;
25123;SDS011;13104;51.030;4.686;2023-05-18T04:55:00;14.25;;;5.68;;
25123;SDS011;13104;51.030;4.686;2023-05-18T04:57:26;10.85;;;5.63;;
25123;SDS011;13104;51.030;4.686;2023-05-18T04:59:53;10.18;;;5.38;;
25123;SDS011;13104;51.030;4.686;2023-05-18T05:02:19;11.27;;;5.05;;
25123;SDS011;13104;51.030;4.686;2023-05-18T05:04:45;16.88;;;6.15;;
25123;SDS011;13104;51.030;4.686;2023-05-18T05:07:11;12.80;;;5.25;;
25123;SDS011;13104;51.030;4.686;2023-05-18T05:09:37;14.48;;;5.90;;
25123;SDS011;13104;51.030;4.686;2023-05-18T05:12:03;13.07;;;5.47;;
25123;SDS011;13104;51.030;4.686;2023-05-18T05:14:30;15.05;;;6.07;;
25123;SDS011;13104;51.030;4.686;2023-05-18T05:16:59;12.73;;;5.70;;
25123;SDS011;13104;51.030;4.686;2023-05-18T05:19:25;17.15;;;5.90;;
25123;SDS011;13104;51.030;4.686;2023-05-18T05:21:51;20.20;;;5.68;;
25123;SDS011;13104;51.030;4.686;2023-05-18T05:24:17;16.73;;;6.60;;
25123;SDS011;13104;51.030;4.686;2023-05-18T05:26:43;10.75;;;5.65;;
25123;SDS011;13104;51.030;4.686;2023-05-18T05:29:10;11.52;;;5.82;;
25123;SDS011;13104;51.030;4.686;2023-05-18T05:31:36;17.40;;;5.95;;
25123;SDS011;13104;51.030;4.686;2023-05-18T05:34:02;12.68;;;5.72;;
25123;SDS011;13104;51.030;4.686;2023-05-18T05:36:28;16.20;;;5.57;;
25123;SDS011;13104;51.030;4.686;2023-05-18T05:38:55;15.35;;;6.10;;
25123;SDS011;13104;51.030;4.686;2023-05-18T05:41:21;14.55;;;6.13;;
25123;SDS011;13104;51.030;4.686;2023-05-18T05:43:48;17.58;;;5.90;;
25123;SDS011;13104;51.030;4.686;2023-05-18T05:46:14;14.52;;;5.95;;
25123;SDS011;13104;51.030;4.686;2023-05-18T05:48:40;13.30;;;5.35;;
25123;SDS011;13104;51.030;4.686;2023-05-18T05:51:06;13.55;;;5.65;;
25123;SDS011;13104;51.030;4.686;2023-05-18T05:53:32;16.10;;;5.57;;
25123;SDS011;13104;51.030;4.686;2023-05-18T05:55:58;12.10;;;5.60;;
25123;SDS011;13104;51.030;4.686;2023-05-18T05:58:24;17.42;;;5.78;;
25123;SDS011;13104;51.030;4.686;2023-05-18T06:00:51;14.02;;;5.63;;
25123;SDS011;13104;51.030;4.686;2023-05-18T06:03:17;16.85;;;5.65;;
25123;SDS011;13104;51.030;4.686;2023-05-18T06:05:43;13.30;;;6.15;;
25123;SDS011;13104;51.030;4.686;2023-05-18T06:08:09;16.55;;;6.43;;
25123;SDS011;13104;51.030;4.686;2023-05-18T06:10:36;14.40;;;5.82;;
25123;SDS011;13104;51.030;4.686;2023-05-18T06:13:03;10.95;;;5.40;;
25123;SDS011;13104;51.030;4.686;2023-05-18T06:15:29;19.67;;;5.97;;
25123;SDS011;13104;51.030;4.686;2023-05-18T06:17:55;16.33;;;5.85;;
25123;SDS011;13104;51.030;4.686;2023-05-18T06:20:21;14.40;;;6.38;;
25123;SDS011;13104;51.030;4.686;2023-05-18T06:22:48;16.95;;;6.05;;
25123;SDS011;13104;51.030;4.686;2023-05-18T06:25:14;11.55;;;6.00;;
25123;SDS011;13104;51.030;4.686;2023-05-18T06:27:40;13.85;;;6.40;;
25123;SDS011;13104;51.030;4.686;2023-05-18T06:30:08;14.30;;;5.90;;
25123;SDS011;13104;51.030;4.686;2023-05-18T06:32:35;16.63;;;6.05;;
25123;SDS011;13104;51.030;4.686;2023-05-18T06:35:01;18.05;;;6.53;;
25123;SDS011;13104;51.030;4.686;2023-05-18T06:37:28;16.77;;;6.57;;
25123;SDS011;13104;51.030;4.686;2023-05-18T06:39:54;14.85;;;6.63;;
25123;SDS011;13104;51.030;4.686;2023-05-18T06:42:20;17.92;;;6.20;;
25123;SDS011;13104;51.030;4.686;2023-05-18T06:44:46;20.83;;;6.75;;
25123;SDS011;13104;51.030;4.686;2023-05-18T06:47:14;13.85;;;6.32;;
25123;SDS011;13104;51.030;4.686;2023-05-18T06:49:40;15.48;;;6.25;;
25123;SDS011;13104;51.030;4.686;2023-05-18T06:52:06;15.75;;;6.78;;
25123;SDS011;13104;51.030;4.686;2023-05-18T06:54:34;13.85;;;6.28;;
25123;SDS011;13104;51.030;4.686;2023-05-18T06:57:00;17.20;;;6.35;;
25123;SDS011;13104;51.030;4.686;2023-05-18T06:59:26;13.27;;;6.00;;
25123;SDS011;13104;51.030;4.686;2023-05-18T07:01:52;14.82;;;6.25;;
25123;SDS011;13104;51.030;4.686;2023-05-18T07:04:18;16.42;;;6.35;;
25123;SDS011;13104;51.030;4.686;2023-05-18T07:06:45;15.55;;;6.78;;
25123;SDS011;13104;51.030;4.686;2023-05-18T07:09:11;12.38;;;5.88;;
25123;SDS011;13104;51.030;4.686;2023-05-18T07:11:37;17.98;;;6.45;;
25123;SDS011;13104;51.030;4.686;2023-05-18T07:14:06;15.80;;;6.60;;
25123;SDS011;13104;51.030;4.686;2023-05-18T07:16:32;19.33;;;7.28;;
25123;SDS011;13104;51.030;4.686;2023-05-18T07:18:59;17.88;;;6.60;;
25123;SDS011;13104;51.030;4.686;2023-05-18T07:21:25;15.43;;;6.22;;
25123;SDS011;13104;51.030;4.686;2023-05-18T07:23:51;12.75;;;6.03;;
25123;SDS011;13104;51.030;4.686;2023-05-18T07:26:18;16.10;;;6.35;;
25123;SDS011;13104;51.030;4.686;2023-05-18T07:28:46;15.77;;;6.85;;
25123;SDS011;13104;51.030;4.686;2023-05-18T07:31:13;15.65;;;6.18;;
25123;SDS011;13104;51.030;4.686;2023-05-18T07:33:41;17.42;;;5.72;;
25123;SDS011;13104;51.030;4.686;2023-05-18T07:36:07;17.63;;;6.13;;
25123;SDS011;13104;51.030;4.686;2023-05-18T07:38:33;14.10;;;6.00;;
25123;SDS011;13104;51.030;4.686;2023-05-18T07:41:00;14.10;;;6.32;;
25123;SDS011;13104;51.030;4.686;2023-05-18T07:43:26;15.00;;;6.80;;
25123;SDS011;13104;51.030;4.686;2023-05-18T07:45:52;20.55;;;6.75;;
25123;SDS011;13104;51.030;4.686;2023-05-18T07:48:18;15.88;;;6.00;;
25123;SDS011;13104;51.030;4.686;2023-05-18T07:50:44;13.40;;;5.40;;
25123;SDS011;13104;51.030;4.686;2023-05-18T07:53:10;16.38;;;6.13;;
25123;SDS011;13104;51.030;4.686;2023-05-18T07:55:36;17.92;;;6.45;;
25123;SDS011;13104;51.030;4.686;2023-05-18T07:58:02;15.65;;;5.97;;
25123;SDS011;13104;51.030;4.686;2023-05-18T08:00:29;15.18;;;6.03;;
25123;SDS011;13104;51.030;4.686;2023-05-18T08:02:55;18.40;;;5.90;;
25123;SDS011;13104;51.030;4.686;2023-05-18T08:05:22;16.33;;;6.63;;
25123;SDS011;13104;51.030;4.686;2023-05-18T08:07:48;16.30;;;5.90;;
25123;SDS011;13104;51.030;4.686;2023-05-18T08:10:14;17.60;;;6.15;;
25123;SDS011;13104;51.030;4.686;2023-05-18T08:12:41;16.67;;;6.38;;
25123;SDS011;13104;51.030;4.686;2023-05-18T08:15:07;13.70;;;6.55;;
25123;SDS011;13104;51.030;4.686;2023-05-18T08:17:33;15.32;;;5.78;;
25123;SDS011;13104;51.030;4.686;2023-05-18T08:19:59;13.88;;;5.60;;
25123;SDS011;13104;51.030;4.686;2023-05-18T08:22:26;15.98;;;5.70;;
25123;SDS011;13104;51.030;4.686;2023-05-18T08:24:52;17.55;;;6.13;;
25123;SDS011;13104;51.030;4.686;2023-05-18T08:27:18;22.85;;;6.50;;
25123;SDS011;13104;51.030;4.686;2023-05-18T08:29:45;14.40;;;5.68;;
25123;SDS011;13104;51.030;4.686;2023-05-18T08:32:11;19.15;;;5.93;;
25123;SDS011;13104;51.030;4.686;2023-05-18T08:34:37;17.90;;;6.50;;
25123;SDS011;13104;51.030;4.686;2023-05-18T08:37:03;15.27;;;5.75;;
25123;SDS011;13104;51.030;4.686;2023-05-18T08:39:29;18.02;;;5.72;;
25123;SDS011;13104;51.030;4.686;2023-05-18T08:44:28;14.75;;;6.05;;
25123;SDS011;13104;51.030;4.686;2023-05-18T08:46:55;13.48;;;5.13;;
25123;SDS011;13104;51.030;4.686;2023-05-18T08:49:21;16.55;;;5.65;;
25123;SDS011;13104;51.030;4.686;2023-05-18T08:51:56;11.52;;;5.30;;
25123;SDS011;13104;51.030;4.686;2023-05-18T08:54:22;15.35;;;5.22;;
25123;SDS011;13104;51.030;4.686;2023-05-18T08:56:49;14.00;;;4.93;;
25123;SDS011;13104;51.030;4.686;2023-05-18T08:59:24;19.35;;;6.20;;
25123;SDS011;13104;51.030;4.686;2023-05-18T09:01:51;13.10;;;4.22;;
25123;SDS011;13104;51.030;4.686;2023-05-18T09:04:19;16.00;;;4.32;;
25123;SDS011;13104;51.030;4.686;2023-05-18T09:06:46;11.95;;;4.32;;
25123;SDS011;13104;51.030;4.686;2023-05-18T09:09:14;15.02;;;4.25;;
25123;SDS011;13104;51.030;4.686;2023-05-18T09:11:40;11.75;;;4.13;;
25123;SDS011;13104;51.030;4.686;2023-05-18T09:14:06;7.55;;;3.30;;
25123;SDS011;13104;51.030;4.686;2023-05-18T09:16:32;11.35;;;4.32;;
25123;SDS011;13104;51.030;4.686;2023-05-18T09:18:59;18.25;;;4.40;;
25123;SDS011;13104;51.030;4.686;2023-05-18T09:21:25;16.95;;;4.35;;
25123;SDS011;13104;51.030;4.686;2023-05-18T09:23:51;15.27;;;4.22;;
25123;SDS011;13104;51.030;4.686;2023-05-18T09:26:18;12.15;;;3.80;;
25123;SDS011;13104;51.030;4.686;2023-05-18T09:28:44;14.13;;;3.90;;
25123;SDS011;13104;51.030;4.686;2023-05-18T09:31:17;16.02;;;3.90;;
25123;SDS011;13104;51.030;4.686;2023-05-18T09:33:44;11.35;;;3.92;;
25123;SDS011;13104;51.030;4.686;2023-05-18T09:36:10;12.82;;;3.97;;
25123;SDS011;13104;51.030;4.686;2023-05-18T09:38:40;12.07;;;4.00;;
25123;SDS011;13104;51.030;4.686;2023-05-18T09:41:09;14.13;;;3.90;;
25123;SDS011;13104;51.030;4.686;2023-05-18T09:43:36;13.73;;;4.20;;
25123;SDS011;13104;51.030;4.686;2023-05-18T09:46:06;15.85;;;4.43;;
25123;SDS011;13104;51.030;4.686;2023-05-18T09:48:36;14.95;;;4.05;;
25123;SDS011;13104;51.030;4.686;2023-05-18T09:51:05;11.88;;;4.05;;
25123;SDS011;13104;51.030;4.686;2023-05-18T09:53:35;10.27;;;4.22;;
25123;SDS011;13104;51.030;4.686;2023-05-18T09:56:04;14.68;;;4.32;;
25123;SDS011;13104;51.030;4.686;2023-05-18T09:58:33;12.07;;;4.47;;
25123;SDS011;13104;51.030;4.686;2023-05-18T10:01:01;13.43;;;4.25;;
25123;SDS011;13104;51.030;4.686;2023-05-18T10:03:30;14.30;;;3.88;;
25123;SDS011;13104;51.030;4.686;2023-05-18T10:05:59;8.80;;;4.07;;
25123;SDS011;13104;51.030;4.686;2023-05-18T10:08:26;9.40;;;3.88;;
25123;SDS011;13104;51.030;4.686;2023-05-18T10:10:52;12.68;;;4.80;;
25123;SDS011;13104;51.030;4.686;2023-05-18T10:13:18;16.42;;;4.32;;
25123;SDS011;13104;51.030;4.686;2023-05-18T10:15:45;11.23;;;4.20;;
25123;SDS011;13104;51.030;4.686;2023-05-18T10:18:11;16.17;;;3.95;;
25123;SDS011;13104;51.030;4.686;2023-05-18T10:20:39;8.27;;;3.53;;
25123;SDS011;13104;51.030;4.686;2023-05-18T10:23:05;15.15;;;3.40;;
25123;SDS011;13104;51.030;4.686;2023-05-18T10:25:32;11.18;;;4.05;;
25123;SDS011;13104;51.030;4.686;2023-05-18T10:28:02;11.60;;;3.55;;
25123;SDS011;13104;51.030;4.686;2023-05-18T10:30:30;14.90;;;4.53;;
25123;SDS011;13104;51.030;4.686;2023-05-18T10:32:57;13.88;;;4.50;;
25123;SDS011;13104;51.030;4.686;2023-05-18T10:35:24;15.10;;;4.68;;
25123;SDS011;13104;51.030;4.686;2023-05-18T10:37:52;14.07;;;4.78;;
25123;SDS011;13104;51.030;4.686;2023-05-18T10:40:20;15.68;;;4.78;;
25123;SDS011;13104;51.030;4.686;2023-05-18T10:42:46;15.50;;;4.78;;
25123;SDS011;13104;51.030;4.686;2023-05-18T10:45:13;11.23;;;4.85;;
25123;SDS011;13104;51.030;4.686;2023-05-18T10:47:40;10.38;;;3.80;;
25123;SDS011;13104;51.030;4.686;2023-05-18T10:50:08;9.60;;;4.50;;
25123;SDS011;13104;51.030;4.686;2023-05-18T10:52:37;14.75;;;4.50;;
25123;SDS011;13104;51.030;4.686;2023-05-18T10:55:05;10.40;;;4.68;;
25123;SDS011;13104;51.030;4.686;2023-05-18T10:57:36;17.35;;;5.15;;
25123;SDS011;13104;51.030;4.686;2023-05-18T11:00:04;17.95;;;5.20;;
25123;SDS011;13104;51.030;4.686;2023-05-18T11:02:31;13.18;;;5.00;;
25123;SDS011;13104;51.030;4.686;2023-05-18T11:04:58;15.52;;;5.50;;
25123;SDS011;13104;51.030;4.686;2023-05-18T11:07:24;14.20;;;4.97;;
25123;SDS011;13104;51.030;4.686;2023-05-18T11:09:52;12.68;;;4.88;;
25123;SDS011;13104;51.030;4.686;2023-05-18T11:12:18;15.02;;;4.97;;
25123;SDS011;13104;51.030;4.686;2023-05-18T11:14:48;13.85;;;5.15;;
25123;SDS011;13104;51.030;4.686;2023-05-18T11:20:26;15.68;;;5.38;;
25123;SDS011;13104;51.030;4.686;2023-05-18T11:22:50;12.93;;;4.85;;
25123;SDS011;13104;51.030;4.686;2023-05-18T11:27:49;13.07;;;4.45;;
25123;SDS011;13104;51.030;4.686;2023-05-18T11:30:25;9.82;;;4.78;;
25123;SDS011;13104;51.030;4.686;2023-05-18T11:32:52;11.50;;;4.70;;
25123;SDS011;13104;51.030;4.686;2023-05-18T11:35:32;14.52;;;4.55;;
25123;SDS011;13104;51.030;4.686;2023-05-18T11:38:06;15.32;;;4.70;;
25123;SDS011;13104;51.030;4.686;2023-05-18T11:40:48;16.20;;;4.60;;
25123;SDS011;13104;51.030;4.686;2023-05-18T11:43:22;13.07;;;4.78;;
25123;SDS011;13104;51.030;4.686;2023-05-18T11:45:52;10.95;;;4.32;;
25123;SDS011;13104;51.030;4.686;2023-05-18T11:48:19;13.15;;;4.82;;
25123;SDS011;13104;51.030;4.686;2023-05-18T11:50:46;12.27;;;4.75;;
25123;SDS011;13104;51.030;4.686;2023-05-18T11:53:15;13.93;;;4.50;;
25123;SDS011;13104;51.030;4.686;2023-05-18T11:55:41;12.57;;;4.80;;
25123;SDS011;13104;51.030;4.686;2023-05-18T11:58:09;13.90;;;4.60;;
25123;SDS011;13104;51.030;4.686;2023-05-18T12:00:36;17.38;;;4.43;;
25123;SDS011;13104;51.030;4.686;2023-05-18T12:03:03;12.73;;;5.38;;
25123;SDS011;13104;51.030;4.686;2023-05-18T12:05:30;15.15;;;4.40;;
25123;SDS011;13104;51.030;4.686;2023-05-18T12:07:56;13.32;;;4.65;;
25123;SDS011;13104;51.030;4.686;2023-05-18T12:10:22;12.95;;;4.57;;
25123;SDS011;13104;51.030;4.686;2023-05-18T12:12:52;18.17;;;5.10;;
25123;SDS011;13104;51.030;4.686;2023-05-18T12:15:22;11.25;;;4.70;;
25123;SDS011;13104;51.030;4.686;2023-05-18T12:17:48;10.95;;;3.95;;
25123;SDS011;13104;51.030;4.686;2023-05-18T12:20:16;7.88;;;3.97;;
25123;SDS011;13104;51.030;4.686;2023-05-18T12:22:47;11.30;;;4.80;;
25123;SDS011;13104;51.030;4.686;2023-05-18T12:25:17;11.38;;;4.90;;
25123;SDS011;13104;51.030;4.686;2023-05-18T12:27:44;12.23;;;4.40;;
25123;SDS011;13104;51.030;4.686;2023-05-18T12:30:15;13.70;;;4.55;;
25123;SDS011;13104;51.030;4.686;2023-05-18T12:32:46;12.18;;;3.97;;
25123;SDS011;13104;51.030;4.686;2023-05-18T12:35:13;13.25;;;4.70;;
25123;SDS011;13104;51.030;4.686;2023-05-18T12:37:42;15.52;;;4.65;;
25123;SDS011;13104;51.030;4.686;2023-05-18T12:40:09;14.68;;;4.22;;
25123;SDS011;13104;51.030;4.686;2023-05-18T12:42:36;8.50;;;3.70;;
25123;SDS011;13104;51.030;4.686;2023-05-18T12:45:02;9.65;;;3.78;;
25123;SDS011;13104;51.030;4.686;2023-05-18T12:47:31;11.73;;;4.15;;
25123;SDS011;13104;51.030;4.686;2023-05-18T12:50:00;16.10;;;3.83;;
25123;SDS011;13104;51.030;4.686;2023-05-18T12:52:27;15.00;;;4.38;;
25123;SDS011;13104;51.030;4.686;2023-05-18T12:54:54;11.70;;;4.00;;
25123;SDS011;13104;51.030;4.686;2023-05-18T12:57:23;19.50;;;4.20;;
25123;SDS011;13104;51.030;4.686;2023-05-18T12:59:53;15.52;;;4.22;;
25123;SDS011;13104;51.030;4.686;2023-05-18T13:05:13;13.60;;;4.28;;
25123;SDS011;13104;51.030;4.686;2023-05-18T13:07:39;13.20;;;4.72;;
25123;SDS011;13104;51.030;4.686;2023-05-18T13:10:06;12.25;;;4.07;;
25123;SDS011;13104;51.030;4.686;2023-05-18T13:12:40;11.43;;;3.67;;
25123;SDS011;13104;51.030;4.686;2023-05-18T13:15:14;13.70;;;4.10;;
25123;SDS011;13104;51.030;4.686;2023-05-18T13:17:47;13.57;;;4.20;;
25123;SDS011;13104;51.030;4.686;2023-05-18T13:20:14;11.25;;;4.07;;
25123;SDS011;13104;51.030;4.686;2023-05-18T13:22:40;13.82;;;4.15;;
25123;SDS011;13104;51.030;4.686;2023-05-18T13:25:07;18.45;;;4.53;;
25123;SDS011;13104;51.030;4.686;2023-05-18T13:27:33;14.52;;;4.65;;
25123;SDS011;13104;51.030;4.686;2023-05-18T13:30:00;11.60;;;4.85;;
25123;SDS011;13104;51.030;4.686;2023-05-18T13:32:26;12.15;;;4.15;;
25123;SDS011;13104;51.030;4.686;2023-05-18T13:34:52;10.77;;;4.10;;
25123;SDS011;13104;51.030;4.686;2023-05-18T13:37:18;14.93;;;4.90;;
25123;SDS011;13104;51.030;4.686;2023-05-18T13:39:45;12.07;;;4.20;;
25123;SDS011;13104;51.030;4.686;2023-05-18T13:42:11;10.73;;;4.45;;
25123;SDS011;13104;51.030;4.686;2023-05-18T13:44:37;12.63;;;4.20;;
25123;SDS011;13104;51.030;4.686;2023-05-18T13:47:04;16.52;;;4.25;;
25123;SDS011;13104;51.030;4.686;2023-05-18T13:49:30;11.95;;;4.03;;
25123;SDS011;13104;51.030;4.686;2023-05-18T13:51:56;17.27;;;4.97;;
25123;SDS011;13104;51.030;4.686;2023-05-18T13:54:24;14.43;;;4.25;;
25123;SDS011;13104;51.030;4.686;2023-05-18T13:56:50;15.85;;;3.85;;
25123;SDS011;13104;51.030;4.686;2023-05-18T13:59:16;11.50;;;3.80;;
25123;SDS011;13104;51.030;4.686;2023-05-18T14:01:43;12.32;;;3.83;;
25123;SDS011;13104;51.030;4.686;2023-05-18T14:04:11;16.85;;;4.10;;
25123;SDS011;13104;51.030;4.686;2023-05-18T14:06:37;11.32;;;4.05;;
25123;SDS011;13104;51.030;4.686;2023-05-18T14:09:03;15.07;;;4.15;;
25123;SDS011;13104;51.030;4.686;2023-05-18T14:11:29;12.55;;;3.50;;
25123;SDS011;13104;51.030;4.686;2023-05-18T14:14:00;14.82;;;3.85;;
25123;SDS011;13104;51.030;4.686;2023-05-18T14:16:27;10.18;;;3.78;;
25123;SDS011;13104;51.030;4.686;2023-05-18T14:18:53;15.48;;;4.15;;
25123;SDS011;13104;51.030;4.686;2023-05-18T14:21:20;10.00;;;3.20;;
25123;SDS011;13104;51.030;4.686;2023-05-18T14:23:46;12.30;;;4.13;;
25123;SDS011;13104;51.030;4.686;2023-05-18T14:26:12;11.55;;;4.32;;
25123;SDS011;13104;51.030;4.686;2023-05-18T14:28:38;12.77;;;4.32;;
25123;SDS011;13104;51.030;4.686;2023-05-18T14:31:04;15.82;;;4.10;;
25123;SDS011;13104;51.030;4.686;2023-05-18T14:33:31;12.15;;;3.63;;
25123;SDS011;13104;51.030;4.686;2023-05-18T14:35:57;10.85;;;4.43;;
25123;SDS011;13104;51.030;4.686;2023-05-18T14:38:23;12.00;;;3.33;;
25123;SDS011;13104;51.030;4.686;2023-05-18T14:40:51;13.82;;;4.05;;
25123;SDS011;13104;51.030;4.686;2023-05-18T14:43:17;15.40;;;3.97;;
25123;SDS011;13104;51.030;4.686;2023-05-18T14:45:43;11.00;;;3.72;;
25123;SDS011;13104;51.030;4.686;2023-05-18T14:48:09;9.27;;;3.65;;
25123;SDS011;13104;51.030;4.686;2023-05-18T14:50:36;8.15;;;3.72;;
25123;SDS011;13104;51.030;4.686;2023-05-18T14:53:02;11.18;;;4.40;;